Time;durP1;ratioP1;P1;durP2;ratioP2;P2;SDS_P1;SDS_P2;PMS_P1;PMS_P2;Temp;Humidity;BMP_temperature;BMP_pressure;BME280_temperature;BME280_humidity;BME280_pressure;Samples;Min_cycle;Max_cycle;Signal;HPM_P1;HPM_P2
2023/12/16 00:00:06;;;;;;;16.65;9.55;;;20.80;52.40;;;;;;4944202;28;20039;-67
2023/12/16 00:02:32;;;;;;;15.13;9.27;;;20.80;52.30;;;;;;4939681;28;20083;-66
2023/12/16 00:04:57;;;;;;;15.20;10.57;;;20.80;52.30;;;;;;4941004;28;20114;-67
2023/12/16 00:07:23;;;;;;;15.55;10.13;;;20.90;52.20;;;;;;4943758;28;20047;-66
2023/12/16 00:09:48;;;;;;;15.52;9.45;;;20.90;52.10;;;;;;4940250;28;20410;-67
2023/12/16 00:12:14;;;;;;;15.23;10.23;;;21.00;52.60;;;;;;4940215;28;20040;-64
2023/12/16 00:14:40;;;;;;;16.17;9.52;;;21.00;51.90;;;;;;4948922;28;20035;-65
2023/12/16 00:17:05;;;;;;;13.75;8.88;;;21.10;51.90;;;;;;4937600;28;20416;-65
2023/12/16 00:19:31;;;;;;;16.58;9.98;;;21.10;51.80;;;;;;4945782;28;20034;-66
2023/12/16 00:21:56;;;;;;;15.77;9.27;;;21.20;51.70;;;;;;4944512;28;20027;-65
2023/12/16 00:24:22;;;;;;;14.98;8.88;;;21.20;51.60;;;;;;4935866;28;20047;-65
2023/12/16 00:26:47;;;;;;;12.43;8.95;;;21.20;51.50;;;;;;4943407;28;20031;-66
2023/12/16 00:29:13;;;;;;;15.05;9.07;;;21.30;51.50;;;;;;4945515;28;20039;-67
2023/12/16 00:31:38;;;;;;;12.93;8.43;;;21.30;51.40;;;;;;4945790;28;20031;-66
2023/12/16 00:34:05;;;;;;;15.57;9.18;;;21.30;51.40;;;;;;4944974;28;20540;-66
2023/12/16 00:36:30;;;;;;;14.65;8.60;;;21.30;51.40;;;;;;4944791;28;20031;-66
2023/12/16 00:38:56;;;;;;;12.35;8.07;;;21.40;51.30;;;;;;4939358;28;20031;-66
2023/12/16 00:41:21;;;;;;;13.95;8.82;;;21.40;51.20;;;;;;4943716;28;20041;-66
2023/12/16 00:43:47;;;;;;;14.50;8.57;;;21.40;51.20;;;;;;4936808;28;20031;-67
2023/12/16 00:46:12;;;;;;;11.70;7.72;;;21.50;51.20;;;;;;4943942;28;20035;-66
2023/12/16 00:48:38;;;;;;;10.20;7.53;;;21.50;51.20;;;;;;4943523;28;20024;-66
2023/12/16 00:51:03;;;;;;;11.00;7.32;;;21.50;51.10;;;;;;4945006;28;20522;-65
2023/12/16 00:53:29;;;;;;;14.52;7.53;;;21.50;51.10;;;;;;4935959;28;20039;-65
2023/12/16 00:55:54;;;;;;;16.05;8.57;;;21.60;51.10;;;;;;4940534;28;20039;-66
2023/12/16 00:58:20;;;;;;;11.02;7.38;;;21.60;51.10;;;;;;4939400;28;20130;-66
2023/12/16 01:00:45;;;;;;;12.52;7.35;;;21.60;51.00;;;;;;4942701;28;20487;-67
2023/12/16 01:03:11;;;;;;;11.63;6.68;;;21.60;51.00;;;;;;4940224;28;20032;-64
2023/12/16 01:05:39;;;;;;;10.90;8.38;;;21.60;51.00;;;;;;4944096;28;20259;-65
2023/12/16 01:08:05;;;;;;;11.43;7.15;;;21.50;51.10;;;;;;4946579;28;20066;-66
2023/12/16 01:10:30;;;;;;;10.15;7.10;;;21.50;51.20;;;;;;4946057;28;20538;-65
2023/12/16 01:12:56;;;;;;;9.98;6.38;;;21.40;51.30;;;;;;4946541;28;20114;-65
2023/12/16 01:15:21;;;;;;;9.68;6.50;;;21.30;51.40;;;;;;4941054;28;20067;-65
2023/12/16 01:17:47;;;;;;;9.98;6.20;;;21.30;51.60;;;;;;4937104;28;20062;-65
2023/12/16 01:20:13;;;;;;;9.82;6.00;;;21.20;51.70;;;;;;4947129;28;20098;-65
2023/12/16 01:22:38;;;;;;;11.23;6.82;;;21.10;51.80;;;;;;4939768;28;20506;-66
2023/12/16 01:25:05;;;;;;;9.35;6.75;;;21.10;52.00;;;;;;4937726;28;20059;-67
2023/12/16 01:27:31;;;;;;;10.55;6.78;;;21.00;52.10;;;;;;4940429;28;20044;-67
2023/12/16 01:29:57;;;;;;;8.48;6.10;;;20.90;52.20;;;;;;4941204;28;20036;-66
2023/12/16 01:32:22;;;;;;;9.48;6.35;;;20.80;52.30;;;;;;4948617;28;20031;-64
2023/12/16 01:34:47;;;;;;;10.32;6.20;;;20.80;52.50;;;;;;4939728;28;20035;-65
2023/12/16 01:37:13;;;;;;;8.73;6.10;;;20.70;52.60;;;;;;4938025;28;20039;-63
2023/12/16 01:39:38;;;;;;;7.95;5.82;;;20.70;52.70;;;;;;4938087;28;20049;-67
2023/12/16 01:42:05;;;;;;;9.70;6.03;;;20.70;52.80;;;;;;4940103;28;20048;-66
2023/12/16 01:44:30;;;;;;;8.43;5.95;;;20.70;52.80;;;;;;4941839;28;20039;-67
2023/12/16 01:46:56;;;;;;;11.15;6.65;;;20.70;52.60;;;;;;4945662;28;20570;-66
2023/12/16 01:49:23;;;;;;;7.68;5.35;;;20.70;52.50;;;;;;4944755;28;20028;-66
2023/12/16 01:51:49;;;;;;;8.18;5.40;;;20.80;52.40;;;;;;4939385;28;20090;-64
2023/12/16 01:54:15;;;;;;;9.60;6.70;;;20.80;52.30;;;;;;4949401;28;20521;-66
2023/12/16 01:56:41;;;;;;;7.10;5.53;;;20.90;52.20;;;;;;4945807;28;20032;-66
2023/12/16 01:59:07;;;;;;;9.98;5.55;;;20.90;52.10;;;;;;4949198;28;20027;-66
2023/12/16 02:01:33;;;;;;;6.80;5.10;;;21.00;52.00;;;;;;4942264;28;20118;-66
2023/12/16 02:03:59;;;;;;;8.02;5.07;;;21.00;51.90;;;;;;4943515;28;20034;-66
2023/12/16 02:06:25;;;;;;;7.57;4.97;;;21.10;51.80;;;;;;4937983;28;20039;-65
2023/12/16 02:08:51;;;;;;;7.15;5.28;;;21.10;51.70;;;;;;4939048;28;20094;-66
2023/12/16 02:11:16;;;;;;;7.68;4.63;;;21.20;51.60;;;;;;4944465;28;20027;-66
2023/12/16 02:13:42;;;;;;;7.25;5.03;;;21.30;51.50;;;;;;4947013;28;20043;-66
2023/12/16 02:16:09;;;;;;;8.40;4.80;;;21.30;51.40;;;;;;4938649;28;20478;-65
2023/12/16 02:18:35;;;;;;;7.38;5.57;;;21.40;51.30;;;;;;4951633;28;20098;-63
2023/12/16 02:21:01;;;;;;;5.43;3.92;;;21.40;51.20;;;;;;4948270;28;20119;-63
2023/12/16 02:23:26;;;;;;;5.78;4.03;;;21.50;51.10;;;;;;4944026;28;20024;-65
2023/12/16 02:25:52;;;;;;;7.25;4.32;;;21.50;51.00;;;;;;4951396;28;20027;-65
2023/12/16 02:28:17;;;;;;;7.78;4.88;;;21.50;51.00;;;;;;4945113;28;20046;-62
2023/12/16 02:30:43;;;;;;;7.03;4.65;;;21.60;51.00;;;;;;4948411;28;20053;-65
2023/12/16 02:33:08;;;;;;;5.90;4.20;;;21.60;50.90;;;;;;4947663;28;20035;-66
2023/12/16 02:35:34;;;;;;;7.18;4.95;;;21.70;50.90;;;;;;4945600;28;20313;-66
2023/12/16 02:38:00;;;;;;;5.82;4.20;;;21.70;50.80;;;;;;4947267;28;20099;-66
2023/12/16 02:40:25;;;;;;;5.88;4.78;;;21.70;50.60;;;;;;4941235;28;20053;-64
2023/12/16 02:42:51;;;;;;;6.45;3.63;;;21.80;50.70;;;;;;4963125;28;20082;-66
2023/12/16 02:45:17;;;;;;;5.75;3.78;;;21.80;50.60;;;;;;4944441;28;20028;-66
2023/12/16 02:47:43;;;;;;;6.15;3.85;;;21.80;50.60;;;;;;4948183;28;20136;-66
2023/12/16 02:50:08;;;;;;;5.50;4.00;;;21.80;50.60;;;;;;4947990;28;20051;-65
2023/12/16 02:52:34;;;;;;;5.90;4.03;;;21.80;50.50;;;;;;4950518;28;20094;-66
2023/12/16 02:54:59;;;;;;;6.30;4.35;;;21.90;50.50;;;;;;4943065;28;20055;-66
2023/12/16 02:57:25;;;;;;;4.93;3.33;;;21.90;50.50;;;;;;4942768;28;20035;-66
2023/12/16 02:59:50;;;;;;;6.28;3.60;;;21.90;50.50;;;;;;4941962;28;20035;-66
2023/12/16 03:02:16;;;;;;;5.82;3.78;;;21.90;50.50;;;;;;4961956;28;20503;-65
2023/12/16 03:04:41;;;;;;;4.60;3.55;;;21.90;50.50;;;;;;4944404;28;20490;-65
2023/12/16 03:07:07;;;;;;;4.40;3.88;;;21.90;50.40;;;;;;4944721;28;20047;-66
2023/12/16 03:09:32;;;;;;;5.13;3.33;;;22.00;50.50;;;;;;4946100;28;20172;-66
2023/12/16 03:12:00;;;;;;;4.05;3.50;;;21.90;50.50;;;;;;4942403;28;20121;-66
2023/12/16 03:14:26;;;;;;;5.35;3.38;;;21.90;50.60;;;;;;4949229;28;20091;-65
2023/12/16 03:16:51;;;;;;;3.60;2.92;;;21.90;50.70;;;;;;4945120;28;20499;-66
2023/12/16 03:19:17;;;;;;;4.38;3.25;;;21.80;50.70;;;;;;4956682;28;20485;-66
2023/12/16 03:21:42;;;;;;;3.90;3.15;;;21.80;50.80;;;;;;4945261;28;20020;-64
2023/12/16 03:24:08;;;;;;;3.97;2.97;;;21.80;50.90;;;;;;4946494;28;20394;-66
2023/12/16 03:26:33;;;;;;;5.03;3.17;;;21.70;50.90;;;;;;4946584;28;20090;-66
2023/12/16 03:28:59;;;;;;;4.43;3.15;;;21.70;51.10;;;;;;4946482;28;20124;-67
2023/12/16 03:31:24;;;;;;;5.03;3.50;;;21.70;51.10;;;;;;4943177;28;20118;-66
2023/12/16 03:33:49;;;;;;;5.15;3.40;;;21.60;51.10;;;;;;4947384;28;20035;-63
2023/12/16 03:36:15;;;;;;;3.33;2.97;;;21.60;51.20;;;;;;4942515;28;20066;-66
2023/12/16 03:38:43;;;;;;;3.72;3.00;;;21.60;51.30;;;;;;4945475;28;20019;-67
2023/12/16 03:41:09;;;;;;;3.95;3.10;;;21.50;51.30;;;;;;4942829;28;20028;-65
2023/12/16 03:43:34;;;;;;;5.50;3.75;;;21.50;51.40;;;;;;4945322;28;20035;-67
2023/12/16 03:46:00;;;;;;;4.78;3.08;;;21.50;51.40;;;;;;4945058;28;20082;-66
2023/12/16 03:48:25;;;;;;;4.03;3.17;;;21.40;51.40;;;;;;4938661;28;20053;-66
2023/12/16 03:50:51;;;;;;;4.50;3.15;;;21.40;51.50;;;;;;4947899;28;20027;-66
2023/12/16 03:53:17;;;;;;;4.55;3.30;;;21.40;51.50;;;;;;4943959;28;20058;-66
2023/12/16 03:55:43;;;;;;;5.28;3.33;;;21.30;51.50;;;;;;4948510;28;20035;-65
2023/12/16 03:58:08;;;;;;;3.58;2.70;;;21.40;51.60;;;;;;4945807;28;20035;-65
2023/12/16 04:00:34;;;;;;;4.18;2.65;;;21.30;51.50;;;;;;4942103;28;20040;-66
2023/12/16 04:03:01;;;;;;;3.45;2.60;;;21.30;51.60;;;;;;4945090;28;20046;-66
2023/12/16 04:05:26;;;;;;;3.08;2.30;;;21.30;51.60;;;;;;4939198;28;20062;-67
2023/12/16 04:07:52;;;;;;;4.00;2.65;;;21.30;51.70;;;;;;4946672;28;20031;-66
2023/12/16 04:10:18;;;;;;;3.45;2.53;;;21.30;51.70;;;;;;4944024;28;20051;-66
2023/12/16 04:12:43;;;;;;;4.38;2.95;;;21.30;51.60;;;;;;4951750;28;20035;-66
2023/12/16 04:15:11;;;;;;;3.88;2.47;;;21.30;51.70;;;;;;4944406;28;20115;-66
2023/12/16 04:17:36;;;;;;;4.00;2.42;;;21.30;51.70;;;;;;4945606;28;20082;-66
2023/12/16 04:20:02;;;;;;;3.55;2.47;;;21.30;51.70;;;;;;4943820;28;20035;-66
2023/12/16 04:22:28;;;;;;;3.33;2.40;;;21.30;51.70;;;;;;4944447;28;20031;-65
2023/12/16 04:24:57;;;;;;;3.08;2.10;;;21.30;51.70;;;;;;4946807;28;20499;-66
2023/12/16 04:27:24;;;;;;;3.15;2.38;;;21.30;51.70;;;;;;4942924;28;20035;-66
2023/12/16 04:29:49;;;;;;;2.63;2.17;;;21.20;51.60;;;;;;4944572;28;20502;-66
2023/12/16 04:32:15;;;;;;;3.95;2.42;;;21.20;51.70;;;;;;4944045;28;20071;-65
2023/12/16 04:34:40;;;;;;;2.95;2.38;;;21.30;51.70;;;;;;4940794;28;20443;-66
2023/12/16 04:37:06;;;;;;;2.95;2.38;;;21.30;51.70;;;;;;4946163;28;20051;-66
2023/12/16 04:39:31;;;;;;;3.13;2.08;;;21.30;51.70;;;;;;4943910;28;20083;-61
2023/12/16 04:41:57;;;;;;;3.13;2.42;;;21.20;51.60;;;;;;4947735;28;20062;-65
2023/12/16 04:44:22;;;;;;;3.40;2.33;;;21.30;51.60;;;;;;4943083;28;20589;-66
2023/12/16 04:46:48;;;;;;;3.53;2.42;;;21.30;51.70;;;;;;4943880;28;20036;-62
2023/12/16 04:49:13;;;;;;;3.55;2.15;;;21.30;51.60;;;;;;4942024;28;20111;-64
2023/12/16 04:51:39;;;;;;;2.53;1.77;;;21.20;51.50;;;;;;4947531;28;20133;-65
2023/12/16 04:54:04;;;;;;;2.33;1.60;;;21.30;51.60;;;;;;4946667;28;20528;-65
2023/12/16 04:56:30;;;;;;;3.67;2.13;;;21.30;51.50;;;;;;4946604;28;20031;-65
2023/12/16 04:58:55;;;;;;;2.38;1.95;;;21.30;51.50;;;;;;4948275;28;20031;-66
2023/12/16 05:01:21;;;;;;;3.10;2.40;;;21.30;51.50;;;;;;4943206;28;20561;-65
2023/12/16 05:03:47;;;;;;;2.60;1.88;;;21.30;51.50;;;;;;4945852;28;20032;-65
2023/12/16 05:06:13;;;;;;;3.00;2.20;;;21.30;51.40;;;;;;4944872;28;20570;-66
2023/12/16 05:08:38;;;;;;;2.67;2.10;;;21.40;51.50;;;;;;4944884;28;20027;-65
2023/12/16 05:11:04;;;;;;;2.60;1.77;;;21.40;51.40;;;;;;4947381;28;20058;-66
2023/12/16 05:13:29;;;;;;;2.47;1.98;;;21.40;51.40;;;;;;4938239;28;20032;-66
2023/12/16 05:15:55;;;;;;;2.35;1.80;;;21.40;51.30;;;;;;4945214;28;20059;-65
2023/12/16 05:18:20;;;;;;;2.67;1.85;;;21.40;51.30;;;;;;4942987;28;20078;-66
2023/12/16 05:20:46;;;;;;;1.90;1.65;;;21.50;51.30;;;;;;4942227;28;20028;-66
2023/12/16 05:23:11;;;;;;;3.72;1.88;;;21.40;51.20;;;;;;4944520;28;20031;-66
2023/12/16 05:25:39;;;;;;;1.80;1.33;;;21.40;51.30;;;;;;4945925;28;20035;-66
2023/12/16 05:28:05;;;;;;;2.53;1.80;;;21.50;51.30;;;;;;4945968;28;20035;-66
2023/12/16 05:30:30;;;;;;;2.67;1.70;;;21.50;51.40;;;;;;4945314;28;20541;-64
2023/12/16 05:32:56;;;;;;;2.28;1.63;;;21.50;51.20;;;;;;4946202;28;20052;-66
2023/12/16 05:35:21;;;;;;;2.40;1.70;;;21.50;51.20;;;;;;4942493;28;20035;-65
2023/12/16 05:37:47;;;;;;;2.33;1.98;;;21.50;51.10;;;;;;4943546;28;20522;-65
2023/12/16 05:40:13;;;;;;;2.53;1.80;;;21.50;51.10;;;;;;4942347;28;20027;-65
2023/12/16 05:42:40;;;;;;;3.42;1.67;;;21.50;51.10;;;;;;4943833;28;20034;-65
2023/12/16 05:45:06;;;;;;;2.42;2.00;;;21.50;51.10;;;;;;4943945;28;20118;-66
2023/12/16 05:47:31;;;;;;;1.73;1.40;;;21.50;51.10;;;;;;4943142;28;20122;-65
2023/12/16 05:49:57;;;;;;;1.73;1.35;;;21.50;51.10;;;;;;4947473;28;20114;-66
2023/12/16 05:52:22;;;;;;;2.78;1.73;;;21.50;51.10;;;;;;4941212;28;20030;-66
2023/12/16 05:54:47;;;;;;;1.63;1.20;;;21.50;51.10;;;;;;4944154;28;20032;-64
2023/12/16 05:57:13;;;;;;;2.80;1.58;;;21.50;51.10;;;;;;4943620;28;20375;-67
2023/12/16 05:59:38;;;;;;;2.20;1.60;;;21.50;51.10;;;;;;4944491;28;20038;-66
2023/12/16 06:02:04;;;;;;;2.15;1.45;;;21.50;51.10;;;;;;4944454;28;20097;-66
2023/12/16 06:04:29;;;;;;;2.63;1.63;;;21.50;51.20;;;;;;4943437;28;20043;-65
2023/12/16 06:06:55;;;;;;;2.85;2.00;;;21.50;51.20;;;;;;4944436;28;20126;-63
2023/12/16 06:09:20;;;;;;;2.08;1.67;;;21.50;51.20;;;;;;4945630;28;20051;-64
2023/12/16 06:11:46;;;;;;;1.27;1.17;;;21.50;51.20;;;;;;4945872;28;20034;-63
2023/12/16 06:14:12;;;;;;;1.70;1.30;;;21.40;51.10;;;;;;4944527;28;20027;-65
2023/12/16 06:16:38;;;;;;;2.67;1.58;;;21.50;51.20;;;;;;4945255;28;20058;-65
2023/12/16 06:19:03;;;;;;;2.30;1.70;;;21.50;51.20;;;;;;4944866;28;20032;-66
2023/12/16 06:21:32;;;;;;;2.83;1.58;;;21.50;51.20;;;;;;4943704;28;20023;-66
2023/12/16 06:24:00;;;;;;;2.08;1.40;;;21.50;51.20;;;;;;4945537;28;20060;-65
2023/12/16 06:26:26;;;;;;;2.25;1.48;;;21.50;51.20;;;;;;4940554;28;20035;-64
2023/12/16 06:28:52;;;;;;;1.50;1.30;;;21.50;51.20;;;;;;4946720;28;20073;-66
2023/12/16 06:31:18;;;;;;;2.25;1.38;;;21.50;51.20;;;;;;4940656;28;20090;-66
2023/12/16 06:33:45;;;;;;;1.67;1.40;;;21.50;51.20;;;;;;4941991;28;20039;-66
2023/12/16 06:36:10;;;;;;;1.70;1.10;;;21.50;51.20;;;;;;4948299;28;20039;-63
2023/12/16 06:38:36;;;;;;;2.08;1.23;;;21.50;51.20;;;;;;4945571;28;20619;-66
2023/12/16 06:41:03;;;;;;;2.33;1.60;;;21.50;51.20;;;;;;4946368;28;20039;-63
2023/12/16 06:43:28;;;;;;;1.60;1.35;;;21.50;51.20;;;;;;4944024;28;20027;-67
2023/12/16 06:45:54;;;;;;;2.65;1.33;;;21.50;51.10;;;;;;4947956;28;20170;-66
2023/12/16 06:48:23;;;;;;;2.17;1.63;;;21.50;51.10;;;;;;4943614;28;20516;-66
2023/12/16 06:50:54;;;;;;;1.95;1.60;;;21.50;51.10;;;;;;4947957;28;20034;-66
2023/12/16 06:53:19;;;;;;;1.40;1.30;;;21.50;51.10;;;;;;4943692;28;20042;-66
2023/12/16 06:55:45;;;;;;;1.88;1.20;;;21.50;51.10;;;;;;4944200;28;20036;-63
2023/12/16 06:58:10;;;;;;;1.88;1.38;;;21.50;51.00;;;;;;4948924;28;20098;-66
2023/12/16 07:00:36;;;;;;;1.30;1.20;;;21.60;51.10;;;;;;4945711;28;20510;-66
2023/12/16 07:03:01;;;;;;;2.25;1.33;;;21.60;51.00;;;;;;4946381;28;20035;-66
2023/12/16 07:05:28;;;;;;;1.80;1.27;;;21.60;51.00;;;;;;4946095;28;20039;-66
2023/12/16 07:07:54;;;;;;;1.33;1.23;;;21.60;51.00;;;;;;4945335;28;20139;-66
2023/12/16 07:10:19;;;;;;;1.42;1.10;;;21.60;51.00;;;;;;4947194;28;20122;-65
2023/12/16 07:12:45;;;;;;;1.52;1.33;;;21.60;51.00;;;;;;4950407;28;20570;-66
2023/12/16 07:15:10;;;;;;;1.70;1.20;;;21.60;51.00;;;;;;4948472;28;20462;-66
2023/12/16 07:17:36;;;;;;;2.20;1.30;;;21.60;51.00;;;;;;4946126;28;20044;-65
2023/12/16 07:20:02;;;;;;;1.67;1.10;;;21.60;51.00;;;;;;4947845;28;20027;-66
2023/12/16 07:22:29;;;;;;;1.30;0.90;;;21.60;51.00;;;;;;4947518;28;20039;-65
2023/12/16 07:24:55;;;;;;;1.40;1.30;;;21.60;51.00;;;;;;4948876;28;21268;-66
2023/12/16 07:27:22;;;;;;;1.52;1.30;;;21.60;51.00;;;;;;4947052;28;20118;-65
2023/12/16 07:29:47;;;;;;;1.98;1.30;;;21.60;51.10;;;;;;4946191;28;20031;-66
2023/12/16 07:32:13;;;;;;;1.85;1.17;;;21.60;51.00;;;;;;4948940;28;20038;-65
2023/12/16 07:34:40;;;;;;;2.35;1.40;;;21.60;51.00;;;;;;4950994;28;20055;-66
2023/12/16 07:37:05;;;;;;;2.67;1.27;;;21.60;51.10;;;;;;4945928;28;20419;-65
2023/12/16 07:39:31;;;;;;;1.80;1.30;;;21.60;51.00;;;;;;4947845;28;20043;-66
2023/12/16 07:41:56;;;;;;;1.30;1.20;;;21.60;51.10;;;;;;4948454;28;20039;-66
2023/12/16 07:44:22;;;;;;;1.65;1.17;;;21.60;51.10;;;;;;4944952;28;20031;-63
2023/12/16 07:46:47;;;;;;;1.50;1.08;;;21.50;51.00;;;;;;4945920;28;20462;-66
2023/12/16 07:49:13;;;;;;;1.67;1.27;;;21.50;51.40;;;;;;4945095;28;20038;-65
2023/12/16 07:51:38;;;;;;;1.10;0.93;;;21.60;51.10;;;;;;4947931;28;20513;-65
2023/12/16 07:54:04;;;;;;;2.03;1.30;;;21.60;51.10;;;;;;4948672;28;20087;-65
2023/12/16 07:56:29;;;;;;;1.20;1.10;;;21.60;51.10;;;;;;4942314;28;20043;-65
2023/12/16 07:58:57;;;;;;;1.58;1.27;;;21.60;51.10;;;;;;4944873;28;20070;-64
2023/12/16 08:01:23;;;;;;;1.27;1.10;;;21.60;51.10;;;;;;4945577;28;20027;-64
2023/12/16 08:03:48;;;;;;;2.00;1.27;;;21.60;51.10;;;;;;4944099;28;20091;-66
2023/12/16 08:06:15;;;;;;;1.95;1.10;;;21.50;51.00;;;;;;4946904;28;20114;-62
2023/12/16 08:08:41;;;;;;;1.88;1.30;;;21.60;51.10;;;;;;4947499;28;20125;-65
2023/12/16 08:11:08;;;;;;;1.25;1.05;;;21.60;51.10;;;;;;4948901;28;20051;-66
2023/12/16 08:13:34;;;;;;;1.63;1.20;;;21.60;51.00;;;;;;4945876;28;20031;-65
2023/12/16 08:16:00;;;;;;;1.90;1.25;;;21.50;51.00;;;;;;4941878;28;20046;-62
2023/12/16 08:18:27;;;;;;;1.00;0.80;;;21.60;51.00;;;;;;4948966;28;20874;-64
2023/12/16 08:20:53;;;;;;;1.45;1.08;;;21.60;51.00;;;;;;4944330;28;20059;-65
2023/12/16 08:23:19;;;;;;;1.75;1.20;;;21.60;51.00;;;;;;4946630;28;20035;-64
2023/12/16 08:25:45;;;;;;;1.20;1.00;;;21.60;51.00;;;;;;4945726;28;20422;-61
2023/12/16 08:28:10;;;;;;;1.25;0.90;;;21.60;51.00;;;;;;4944850;28;20047;-65
2023/12/16 08:30:36;;;;;;;2.30;1.33;;;21.60;50.90;;;;;;4946842;28;20050;-64
2023/12/16 08:33:01;;;;;;;1.83;1.30;;;21.60;50.90;;;;;;4946318;28;20027;-59
2023/12/16 08:35:27;;;;;;;1.13;1.00;;;21.60;50.90;;;;;;4945863;28;20441;-62
2023/12/16 08:37:55;;;;;;;1.75;1.10;;;21.60;50.90;;;;;;4944942;28;20039;-62
2023/12/16 08:40:20;;;;;;;1.40;1.00;;;21.60;50.90;;;;;;4951279;28;20442;-65
2023/12/16 08:42:46;;;;;;;1.45;1.20;;;21.70;51.00;;;;;;4956996;28;20094;-64
2023/12/16 08:45:12;;;;;;;2.67;1.48;;;21.60;50.80;;;;;;4945118;28;20031;-66
2023/12/16 08:47:37;;;;;;;1.58;1.30;;;21.70;50.90;;;;;;4950388;28;20035;-65
2023/12/16 08:50:04;;;;;;;2.45;1.27;;;21.70;50.90;;;;;;4952389;28;20110;-67
2023/12/16 08:52:33;;;;;;;1.30;1.15;;;21.70;50.90;;;;;;4950664;28;20038;-65
2023/12/16 08:54:59;;;;;;;1.10;0.98;;;21.70;51.60;;;;;;4951761;28;20466;-65
2023/12/16 08:57:25;;;;;;;2.72;1.17;;;21.70;50.90;;;;;;4951522;28;20031;-67
2023/12/16 08:59:50;;;;;;;1.65;1.30;;;21.70;50.90;;;;;;4947327;28;20542;-66
2023/12/16 09:02:16;;;;;;;3.03;1.60;;;21.60;50.80;;;;;;4949536;28;20135;-63
2023/12/16 09:04:41;;;;;;;2.53;1.20;;;21.60;50.90;;;;;;4945163;28;20035;-66
2023/12/16 09:07:07;;;;;;;3.08;1.27;;;21.60;51.00;;;;;;4946612;28;20553;-63
2023/12/16 09:09:32;;;;;;;1.48;1.30;;;21.50;51.00;;;;;;4945539;28;20082;-64
2023/12/16 09:11:58;;;;;;;1.52;1.38;;;21.40;51.20;;;;;;4952276;28;20040;-65
2023/12/16 09:14:23;;;;;;;3.30;1.50;;;21.40;51.30;;;;;;4947685;28;20711;-65
2023/12/16 09:16:49;;;;;;;3.90;1.65;;;21.30;51.40;;;;;;4943636;28;20028;-65
2023/12/16 09:19:15;;;;;;;1.70;0.98;;;21.30;51.60;;;;;;4945741;28;20031;-66
2023/12/16 09:21:41;;;;;;;1.90;1.23;;;21.20;51.70;;;;;;4951188;28;20019;-66
2023/12/16 09:24:07;;;;;;;1.73;0.98;;;21.10;51.90;;;;;;4946405;28;20498;-66
2023/12/16 09:26:33;;;;;;;2.00;1.35;;;21.10;52.00;;;;;;4951053;28;20054;-64
2023/12/16 09:28:59;;;;;;;1.85;1.40;;;21.00;52.00;;;;;;4945507;28;20027;-66
2023/12/16 09:31:25;;;;;;;1.88;1.27;;;21.00;52.10;;;;;;4955823;28;20494;-65
2023/12/16 09:33:50;;;;;;;1.45;1.20;;;20.90;52.10;;;;;;4949377;28;20087;-66
2023/12/16 09:36:16;;;;;;;1.88;1.55;;;20.90;52.20;;;;;;4955187;28;20034;-66
2023/12/16 09:38:42;;;;;;;2.92;1.38;;;20.90;52.20;;;;;;4944074;28;20420;-65
2023/12/16 09:41:20;;;;;;;1.65;1.25;;;21.00;52.20;;;;;;4945457;28;20043;-65
2023/12/16 09:43:49;;;;;;;1.60;1.42;;;20.90;52.10;;;;;;4947323;28;20122;-66
2023/12/16 09:46:15;;;;;;;2.70;1.95;;;21.00;52.10;;;;;;4947607;28;20035;-64
2023/12/16 09:48:42;;;;;;;3.15;1.45;;;21.00;52.00;;;;;;4946237;28;20043;-65
2023/12/16 09:51:08;;;;;;;1.90;1.58;;;21.00;51.80;;;;;;4950672;28;20097;-64
2023/12/16 09:53:33;;;;;;;1.52;1.30;;;21.10;51.80;;;;;;4946541;28;20035;-65
2023/12/16 09:55:59;;;;;;;2.33;1.35;;;21.10;51.80;;;;;;4948372;28;20098;-65
2023/12/16 09:58:25;;;;;;;3.72;1.70;;;21.10;51.70;;;;;;4957627;28;20690;-62
2023/12/16 10:00:52;;;;;;;3.22;1.30;;;21.10;51.60;;;;;;4951244;28;20054;-61
2023/12/16 10:03:17;;;;;;;2.58;1.60;;;21.20;51.60;;;;;;4955100;28;20687;-65
2023/12/16 10:05:45;;;;;;;2.70;1.80;;;21.20;51.50;;;;;;4964774;28;20041;-64
2023/12/16 10:08:10;;;;;;;4.00;2.53;;;21.20;51.50;;;;;;4950442;28;20047;-65
2023/12/16 10:10:36;;;;;;;5.93;3.00;;;21.20;51.50;;;;;;4966889;28;20031;-65
2023/12/16 10:13:03;;;;;;;7.63;3.83;;;21.20;51.50;;;;;;4953157;28;20039;-66
2023/12/16 10:15:33;;;;;;;7.25;4.57;;;21.20;51.50;;;;;;4959649;28;20129;-66
2023/12/16 10:18:02;;;;;;;10.82;5.50;;;21.20;51.50;;;;;;4956781;28;20039;-66
2023/12/16 10:20:29;;;;;;;9.93;5.45;;;21.20;51.50;;;;;;4950258;28;20051;-66
2023/12/16 10:22:55;;;;;;;11.80;6.10;;;21.20;51.50;;;;;;4945748;28;20036;-66
2023/12/16 10:25:21;;;;;;;12.00;5.68;;;21.20;51.50;;;;;;4947354;28;20093;-66
2023/12/16 10:27:47;;;;;;;12.38;6.90;;;21.20;51.60;;;;;;4946122;28;20119;-66
2023/12/16 10:30:13;;;;;;;11.68;6.90;;;21.20;51.50;;;;;;4949299;28;20039;-66
2023/12/16 10:32:39;;;;;;;15.35;7.47;;;21.20;51.50;;;;;;4948129;28;20077;-66
2023/12/16 10:35:06;;;;;;;14.50;7.78;;;21.20;51.50;;;;;;4946113;28;20042;-66
2023/12/16 10:37:32;;;;;;;13.55;7.65;;;21.20;51.50;;;;;;4948250;28;20050;-61
2023/12/16 10:39:58;;;;;;;17.98;8.55;;;21.20;51.50;;;;;;4944622;28;20039;-64
2023/12/16 10:42:23;;;;;;;15.27;7.85;;;21.20;51.50;;;;;;4946079;28;20042;-65
2023/12/16 10:44:50;;;;;;;17.85;8.40;;;21.20;51.50;;;;;;4946521;28;20031;-65
2023/12/16 10:47:17;;;;;;;15.02;8.25;;;21.20;51.50;;;;;;4959057;28;20045;-66
2023/12/16 10:49:47;;;;;;;16.83;8.10;;;21.20;51.50;;;;;;4956468;28;20058;-67
2023/12/16 10:52:15;;;;;;;15.27;7.75;;;21.20;51.60;;;;;;4949706;28;20047;-65
2023/12/16 10:54:47;;;;;;;15.63;8.68;;;21.20;51.50;;;;;;4958611;28;20035;-67
2023/12/16 10:57:18;;;;;;;19.05;9.27;;;21.20;51.50;;;;;;4949635;28;20062;-61
2023/12/16 11:00:06;;;;;;;16.52;9.80;;;21.20;51.60;;;;;;4940082;28;20058;-66
2023/12/16 11:02:37;;;;;;;14.60;9.25;;;21.20;51.70;;;;;;4948798;28;20407;-66
2023/12/16 11:05:07;;;;;;;18.55;9.50;;;21.20;51.80;;;;;;4941485;28;20031;-65
2023/12/16 11:07:37;;;;;;;20.25;10.15;;;21.10;51.70;;;;;;4948452;28;20027;-65
2023/12/16 11:10:05;;;;;;;20.13;9.95;;;21.10;51.80;;;;;;4940410;28;20609;-66
2023/12/16 11:12:33;;;;;;;14.23;9.43;;;21.10;51.80;;;;;;4952450;28;20042;-67
2023/12/16 11:14:59;;;;;;;16.08;9.68;;;21.00;51.90;;;;;;4945573;28;20036;-68
2023/12/16 11:17:31;;;;;;;19.73;9.55;;;20.90;52.00;;;;;;4936648;28;20061;-68
2023/12/16 11:20:01;;;;;;;18.92;9.77;;;20.90;52.20;;;;;;4939846;28;20043;-63
2023/12/16 11:22:26;;;;;;;19.92;8.82;;;20.80;52.30;;;;;;4948717;28;20055;-67
2023/12/16 11:24:52;;;;;;;16.85;8.90;;;20.80;52.40;;;;;;4947632;28;20105;-67
2023/12/16 11:27:20;;;;;;;17.20;9.13;;;20.70;52.50;;;;;;4936311;28;20094;-66
2023/12/16 11:29:46;;;;;;;16.20;9.65;;;20.70;52.60;;;;;;4944671;28;20031;-63
2023/12/16 11:32:12;;;;;;;15.82;8.88;;;20.70;52.70;;;;;;4930988;28;20111;-67
2023/12/16 11:34:49;;;;;;;17.40;9.20;;;20.60;52.70;;;;;;4945770;28;20477;-66
2023/12/16 11:37:40;;;;;;;20.10;9.80;;;20.60;52.80;;;;;;4934403;28;20053;-66
2023/12/16 11:40:09;;;;;;;21.25;10.20;;;20.60;52.80;;;;;;4938627;28;20036;-65
2023/12/16 11:42:46;;;;;;;17.67;9.43;;;20.60;52.80;;;;;;4944359;28;20063;-67
2023/12/16 11:45:35;;;;;;;17.63;8.90;;;20.60;52.80;;;;;;4945722;28;20039;-66
2023/12/16 11:48:01;;;;;;;16.42;9.85;;;20.60;52.80;;;;;;4940199;28;20124;-66
2023/12/16 11:50:26;;;;;;;14.50;9.10;;;20.60;52.80;;;;;;4940871;28;20051;-65
2023/12/16 11:52:51;;;;;;;14.88;8.48;;;20.60;52.70;;;;;;4941241;28;20473;-67
2023/12/16 11:55:19;;;;;;;12.95;8.63;;;20.60;52.70;;;;;;4941650;28;20093;-65
2023/12/16 11:57:47;;;;;;;17.67;8.70;;;20.60;52.70;;;;;;4944055;28;20142;-65
2023/12/16 12:00:13;;;;;;;12.60;8.25;;;20.60;52.70;;;;;;4943978;28;20035;-63
2023/12/16 12:02:39;;;;;;;16.63;8.38;;;20.60;52.60;;;;;;4945504;28;20537;-64
2023/12/16 12:05:11;;;;;;;14.55;8.30;;;20.60;52.70;;;;;;4943398;28;20054;-67
2023/12/16 12:07:36;;;;;;;14.52;8.25;;;20.70;52.60;;;;;;4942044;28;20555;-63
2023/12/16 12:10:02;;;;;;;13.23;7.65;;;20.70;52.40;;;;;;4942672;28;20054;-64
2023/12/16 12:12:28;;;;;;;16.70;8.50;;;20.70;52.30;;;;;;4947860;28;20034;-66
2023/12/16 12:14:53;;;;;;;13.82;7.78;;;20.80;52.20;;;;;;4935753;28;20038;-63
2023/12/16 12:17:19;;;;;;;14.18;7.70;;;20.80;52.00;;;;;;4943506;28;20027;-64
2023/12/16 12:19:45;;;;;;;14.45;7.68;;;20.90;51.90;;;;;;4937092;28;20546;-66
2023/12/16 12:22:11;;;;;;;13.25;7.22;;;21.00;51.80;;;;;;4938601;28;20120;-61
2023/12/16 12:24:36;;;;;;;11.98;7.13;;;21.10;51.60;;;;;;4945065;28;20506;-66
2023/12/16 12:27:02;;;;;;;13.30;8.48;;;21.10;51.50;;;;;;4943997;28;20047;-66
2023/12/16 12:29:57;;;;;;;12.20;7.03;;;21.20;51.30;;;;;;4945955;28;20042;-64
2023/12/16 12:32:27;;;;;;;14.73;7.25;;;21.30;51.20;;;;;;4945028;28;20042;-63
2023/12/16 12:35:03;;;;;;;12.90;7.50;;;21.40;51.00;;;;;;4944918;28;20118;-66
2023/12/16 12:37:39;;;;;;;16.25;7.88;;;21.50;50.90;;;;;;4945494;28;20518;-64